Time;durP1;ratioP1;P1;durP2;ratioP2;P2;SDS_P1;SDS_P2;PMS_P1;PMS_P2;Temp;Humidity;BMP_temperature;BMP_pressure;BME280_temperature;BME280_humidity;BME280_pressure;Samples;Min_cycle;Max_cycle;Signal;HPM_P1;HPM_P2
2023/03/04 00:02:00;;;;;;;18.30;3.73;;;5.20;99.90;;;;;;5072158;28;20108;-49
2023/03/04 00:04:26;;;;;;;16.47;3.87;;;5.10;99.90;;;;;;5072275;28;20012;-51
2023/03/04 00:06:52;;;;;;;18.37;4.10;;;5.10;99.90;;;;;;5071987;28;20028;-50
2023/03/04 00:09:18;;;;;;;14.47;3.80;;;5.10;99.90;;;;;;5072127;28;20417;-51
2023/03/04 00:11:43;;;;;;;21.27;4.03;;;5.10;99.90;;;;;;5054300;28;20074;-49
2023/03/04 00:14:09;;;;;;;30.10;4.30;;;5.10;99.90;;;;;;5071571;28;20499;-48
2023/03/04 00:16:35;;;;;;;21.53;4.73;;;5.10;99.90;;;;;;5071647;28;20036;-48
2023/03/04 00:19:01;;;;;;;20.00;4.37;;;5.20;99.90;;;;;;5071724;28;20047;-53
2023/03/04 00:21:26;;;;;;;19.87;3.90;;;5.20;99.90;;;;;;5071840;28;20031;-52
2023/03/04 00:23:52;;;;;;;14.80;4.33;;;5.20;99.90;;;;;;5071494;28;20035;-53
2023/03/04 00:26:18;;;;;;;22.97;4.17;;;5.20;99.90;;;;;;5071695;28;20025;-49
2023/03/04 00:28:45;;;;;;;19.37;3.83;;;5.10;99.90;;;;;;5053654;28;20097;-47
2023/03/04 00:31:11;;;;;;;21.63;4.87;;;5.10;99.90;;;;;;5071205;28;20028;-50
2023/03/04 00:33:37;;;;;;;17.83;4.07;;;5.10;99.90;;;;;;5071419;28;20314;-50
2023/03/04 00:36:03;;;;;;;20.20;4.23;;;5.10;99.90;;;;;;5053742;28;20036;-50
2023/03/04 00:38:29;;;;;;;19.00;4.00;;;5.10;99.90;;;;;;5071367;28;20029;-50
2023/03/04 00:40:55;;;;;;;18.87;3.93;;;5.10;99.90;;;;;;5071443;28;20040;-48
2023/03/04 00:43:21;;;;;;;17.17;4.10;;;5.00;99.90;;;;;;5053046;28;20040;-47
2023/03/04 00:45:46;;;;;;;21.03;4.20;;;5.00;99.90;;;;;;5053409;28;20028;-51
2023/03/04 00:48:13;;;;;;;18.60;3.80;;;5.00;99.90;;;;;;5053106;28;20398;-49
2023/03/04 00:50:39;;;;;;;20.97;4.27;;;5.00;99.90;;;;;;5071364;28;20028;-50
2023/03/04 00:53:05;;;;;;;18.97;3.80;;;5.00;99.90;;;;;;5053229;28;20489;-52
2023/03/04 00:55:30;;;;;;;19.30;4.13;;;5.10;99.90;;;;;;5071350;28;20081;-52
2023/03/04 00:57:56;;;;;;;19.57;3.80;;;5.10;99.90;;;;;;5052951;28;20063;-47
2023/03/04 01:00:22;;;;;;;19.87;4.03;;;5.10;99.90;;;;;;5070881;28;20549;-47
2023/03/04 01:02:49;;;;;;;22.43;4.50;;;5.10;99.90;;;;;;5070929;28;20028;-50
2023/03/04 01:05:15;;;;;;;19.67;4.63;;;5.10;99.90;;;;;;5070784;28;20028;-46
2023/03/04 01:07:41;;;;;;;18.43;4.27;;;5.10;99.90;;;;;;5070920;28;20426;-48
2023/03/04 01:10:08;;;;;;;20.50;4.10;;;5.10;99.90;;;;;;5070755;28;20094;-49
2023/03/04 01:12:34;;;;;;;18.63;3.73;;;5.10;99.90;;;;;;5070723;28;20078;-47
2023/03/04 01:15:00;;;;;;;18.90;3.60;;;5.10;99.90;;;;;;5052571;28;20040;-49
2023/03/04 01:17:26;;;;;;;17.80;3.70;;;5.10;99.90;;;;;;5070405;28;20032;-49
2023/03/04 01:19:52;;;;;;;18.10;4.40;;;5.10;99.90;;;;;;5070581;28;20058;-49
2023/03/04 01:22:18;;;;;;;18.37;4.70;;;5.00;99.90;;;;;;5070541;28;20421;-49
2023/03/04 01:24:45;;;;;;;22.40;4.90;;;5.00;99.90;;;;;;5070523;28;20063;-46
2023/03/04 01:27:11;;;;;;;22.33;5.10;;;5.00;99.90;;;;;;5052478;28;20064;-52
2023/03/04 01:29:36;;;;;;;21.13;4.20;;;5.10;99.90;;;;;;5052820;28;20060;-47
2023/03/04 01:32:02;;;;;;;20.93;4.00;;;5.10;99.90;;;;;;5070669;28;20025;-50
2023/03/04 01:34:28;;;;;;;21.63;3.90;;;5.10;99.90;;;;;;5052537;28;20397;-51
2023/03/04 01:36:54;;;;;;;26.60;3.87;;;5.10;99.90;;;;;;5070436;28;20029;-50
2023/03/04 01:39:19;;;;;;;15.13;3.37;;;5.10;99.90;;;;;;5070410;28;20509;-51
2023/03/04 01:41:45;;;;;;;16.13;3.53;;;5.10;99.90;;;;;;5070588;28;20028;-51
2023/03/04 01:44:11;;;;;;;18.97;3.83;;;5.10;99.90;;;;;;5069297;28;20032;-52
2023/03/04 01:46:42;;;;;;;26.50;4.37;;;5.10;99.90;;;;;;5070381;28;20040;-49
2023/03/04 01:49:11;;;;;;;22.17;4.17;;;5.10;99.90;;;;;;5070499;28;20469;-48
2023/03/04 01:51:37;;;;;;;15.63;3.03;;;5.10;99.90;;;;;;5070543;28;20058;-52
2023/03/04 01:54:02;;;;;;;18.20;3.20;;;5.10;99.90;;;;;;5052139;28;20537;-52
2023/03/04 01:56:34;;;;;;;21.73;3.73;;;5.10;99.90;;;;;;5051994;28;20024;-52
2023/03/04 01:59:17;;;;;;;16.50;3.03;;;5.00;99.90;;;;;;5052007;28;20029;-51
2023/03/04 02:01:46;;;;;;;22.57;3.90;;;5.10;99.90;;;;;;5070138;28;20204;-48
2023/03/04 02:04:14;;;;;;;17.08;3.78;;;5.10;99.90;;;;;;5070127;28;20029;-48
2023/03/04 02:06:41;;;;;;;22.63;3.67;;;5.10;99.90;;;;;;5070014;28;20063;-49
2023/03/04 02:09:07;;;;;;;21.57;4.50;;;5.10;99.90;;;;;;5070063;28;20424;-50
2023/03/04 02:11:35;;;;;;;21.53;4.50;;;5.10;99.90;;;;;;5052394;28;20058;-47
2023/03/04 02:14:01;;;;;;;18.73;4.30;;;5.10;99.90;;;;;;5051828;28;20033;-48
2023/03/04 02:16:27;;;;;;;20.73;3.80;;;5.10;99.90;;;;;;5051878;28;20119;-51
2023/03/04 02:18:54;;;;;;;23.63;3.50;;;5.10;99.90;;;;;;5069924;28;20062;-48
2023/03/04 02:21:19;;;;;;;21.00;3.17;;;5.10;99.90;;;;;;5070097;28;20104;-49
2023/03/04 02:24:14;;;;;;;14.80;2.70;;;5.10;99.90;;;;;;5051805;28;20178;-49
2023/03/04 02:26:42;;;;;;;19.57;2.80;;;5.10;99.90;;;;;;5051900;28;20029;-49
2023/03/04 02:29:10;;;;;;;19.87;3.30;;;5.10;99.90;;;;;;5069978;28;20031;-52
2023/03/04 02:31:43;;;;;;;21.50;3.57;;;5.10;99.90;;;;;;5052168;28;20115;-52
2023/03/04 02:34:19;;;;;;;15.80;4.00;;;5.10;99.90;;;;;;5051854;28;20439;-47
2023/03/04 02:36:47;;;;;;;19.87;4.03;;;5.10;99.90;;;;;;5051893;28;20024;-47
2023/03/04 02:39:29;;;;;;;23.10;3.80;;;5.10;99.90;;;;;;5051922;28;20552;-50
2023/03/04 02:41:55;;;;;;;18.30;3.47;;;5.00;99.90;;;;;;5052201;28;20060;-50
2023/03/04 02:44:28;;;;;;;20.53;3.37;;;5.00;99.90;;;;;;5051799;28;20039;-49
2023/03/04 02:46:55;;;;;;;18.97;2.93;;;5.10;99.90;;;;;;5051761;28;20054;-51
2023/03/04 02:49:23;;;;;;;23.33;3.90;;;5.00;99.90;;;;;;5069874;28;20047;-50
2023/03/04 02:51:59;;;;;;;22.87;3.63;;;5.10;99.90;;;;;;5069992;28;20163;-50
2023/03/04 02:54:25;;;;;;;16.87;3.40;;;5.10;99.90;;;;;;5070952;28;20503;-52
2023/03/04 02:56:54;;;;;;;26.10;4.00;;;5.00;99.90;;;;;;5055245;28;20032;-49
2023/03/04 02:59:22;;;;;;;24.13;3.77;;;4.90;99.90;;;;;;5055364;28;20036;-51
2023/03/04 03:01:49;;;;;;;23.93;3.57;;;4.90;99.90;;;;;;5055607;28;20116;-49
2023/03/04 03:04:16;;;;;;;21.57;4.30;;;5.00;99.90;;;;;;5073117;28;20099;-51
2023/03/04 03:06:43;;;;;;;20.97;5.53;;;4.90;99.90;;;;;;5073211;28;20044;-52
2023/03/04 03:09:10;;;;;;;14.40;3.17;;;4.90;99.90;;;;;;5055322;28;20055;-48
2023/03/04 03:11:36;;;;;;;23.10;3.87;;;4.90;99.90;;;;;;5055393;28;20060;-47
2023/03/04 03:14:03;;;;;;;22.87;4.40;;;4.90;99.90;;;;;;5054938;28;20566;-51
2023/03/04 03:16:29;;;;;;;24.03;6.47;;;4.90;99.90;;;;;;5072886;28;20050;-50
2023/03/04 03:18:55;;;;;;;22.00;5.97;;;4.90;99.90;;;;;;5055022;28;20157;-47
2023/03/04 03:21:21;;;;;;;23.23;5.83;;;4.90;99.90;;;;;;5055029;28;20025;-48
2023/03/04 03:23:47;;;;;;;23.17;4.97;;;4.90;99.90;;;;;;5072649;28;20036;-50
2023/03/04 03:26:13;;;;;;;17.60;4.37;;;4.90;99.90;;;;;;5073218;28;20021;-50
2023/03/04 03:28:39;;;;;;;21.77;3.80;;;4.90;99.90;;;;;;5054511;28;20031;-50
2023/03/04 03:31:05;;;;;;;19.90;3.30;;;4.90;99.90;;;;;;5072871;28;20075;-51
2023/03/04 03:33:30;;;;;;;21.67;3.63;;;4.90;99.90;;;;;;5072487;28;20033;-51
2023/03/04 03:35:56;;;;;;;18.13;2.80;;;4.90;99.90;;;;;;5054802;28;20035;-50
2023/03/04 03:38:22;;;;;;;19.37;3.13;;;4.90;99.90;;;;;;5072428;28;20025;-50
2023/03/04 03:40:48;;;;;;;21.73;2.50;;;5.00;99.90;;;;;;5072612;28;20131;-49
2023/03/04 03:43:13;;;;;;;19.93;2.60;;;4.90;99.90;;;;;;5071871;28;20046;-50
2023/03/04 03:45:39;;;;;;;22.90;2.53;;;4.90;99.90;;;;;;5072419;28;20032;-51
2023/03/04 03:48:05;;;;;;;17.27;2.50;;;4.90;99.90;;;;;;5072635;28;20025;-51
2023/03/04 03:50:32;;;;;;;17.30;3.13;;;4.90;99.90;;;;;;5072387;28;20392;-50
2023/03/04 03:52:58;;;;;;;13.77;2.80;;;5.00;99.90;;;;;;5072849;28;20111;-48
2023/03/04 03:55:24;;;;;;;21.63;4.40;;;5.00;99.90;;;;;;5072146;28;20029;-49
2023/03/04 03:57:49;;;;;;;10.73;2.47;;;5.00;99.90;;;;;;5072190;28;20505;-49
2023/03/04 04:00:16;;;;;;;21.77;3.20;;;5.00;99.90;;;;;;5072347;28;20078;-50
2023/03/04 04:02:42;;;;;;;12.60;2.33;;;5.00;99.90;;;;;;5072288;28;20138;-52
2023/03/04 04:05:09;;;;;;;16.33;2.87;;;5.00;99.90;;;;;;5054077;28;20499;-47
2023/03/04 04:07:35;;;;;;;19.17;2.97;;;5.00;99.90;;;;;;5071974;28;20461;-52
2023/03/04 04:10:02;;;;;;;19.93;2.90;;;5.00;99.90;;;;;;5071985;28;20036;-49
2023/03/04 04:12:28;;;;;;;20.23;2.47;;;5.00;99.90;;;;;;5071983;28;20036;-50
2023/03/04 04:14:54;;;;;;;19.50;2.80;;;4.90;99.90;;;;;;5071863;28;20033;-47
2023/03/04 04:17:20;;;;;;;12.87;2.50;;;5.00;99.90;;;;;;5071899;28;20056;-48
2023/03/04 04:19:45;;;;;;;16.47;2.30;;;4.90;99.90;;;;;;5071995;28;20032;-49
2023/03/04 04:22:14;;;;;;;16.50;2.10;;;4.90;99.90;;;;;;5071890;28;20449;-50
2023/03/04 04:24:40;;;;;;;15.82;2.30;;;4.90;99.90;;;;;;5071711;28;20377;-52
2023/03/04 04:27:06;;;;;;;19.17;3.77;;;4.90;99.90;;;;;;5071749;28;20078;-48
2023/03/04 04:29:31;;;;;;;18.67;3.10;;;4.90;99.90;;;;;;5053879;28;20058;-47
2023/03/04 04:31:57;;;;;;;15.20;2.83;;;4.90;99.90;;;;;;5071962;28;20393;-46
2023/03/04 04:34:23;;;;;;;18.40;2.60;;;4.90;99.90;;;;;;5071453;28;20033;-48
2023/03/04 04:36:49;;;;;;;19.67;2.63;;;4.90;99.90;;;;;;5071460;28;20538;-49
2023/03/04 04:39:15;;;;;;;16.07;3.10;;;4.90;99.90;;;;;;5071567;28;20044;-49
2023/03/04 04:41:42;;;;;;;18.80;4.80;;;4.90;99.90;;;;;;5071701;28;20043;-53
2023/03/04 04:44:09;;;;;;;21.17;3.60;;;4.90;99.90;;;;;;5083768;22;20050;-52
2023/03/04 04:46:36;;;;;;;16.50;3.07;;;4.90;99.90;;;;;;5071493;28;20068;-50
2023/03/04 04:49:02;;;;;;;20.17;3.50;;;4.90;99.90;;;;;;5071473;28;20493;-50
2023/03/04 04:51:28;;;;;;;16.70;3.47;;;4.90;99.90;;;;;;5071698;28;20025;-50
2023/03/04 04:53:54;;;;;;;13.60;2.70;;;4.90;99.90;;;;;;5071477;28;20414;-52
2023/03/04 04:56:25;;;;;;;14.53;2.70;;;4.90;99.90;;;;;;5071282;28;20029;-54
2023/03/04 04:58:52;;;;;;;19.43;3.83;;;4.90;99.90;;;;;;5071493;28;20495;-50
2023/03/04 05:01:18;;;;;;;15.23;3.07;;;4.90;99.90;;;;;;5071438;28;20032;-50
2023/03/04 05:03:44;;;;;;;11.87;2.40;;;4.90;99.90;;;;;;5071040;28;20101;-54
2023/03/04 05:06:11;;;;;;;17.30;2.93;;;4.90;99.90;;;;;;5071559;28;20378;-52
2023/03/04 05:08:36;;;;;;;12.57;2.47;;;5.00;99.90;;;;;;5070962;28;20021;-54
2023/03/04 05:11:03;;;;;;;11.30;2.50;;;4.90;99.90;;;;;;5071324;28;20173;-51
2023/03/04 05:13:29;;;;;;;14.63;2.63;;;4.90;99.90;;;;;;5070941;28;20032;-52
2023/03/04 05:15:56;;;;;;;16.67;2.87;;;4.90;99.90;;;;;;5071275;28;20059;-54
2023/03/04 05:18:23;;;;;;;15.00;2.30;;;4.90;99.90;;;;;;5070917;28;20500;-54
2023/03/04 05:20:57;;;;;;;16.23;2.67;;;4.90;99.90;;;;;;5071095;28;20028;-53
2023/03/04 05:23:24;;;;;;;11.70;2.23;;;4.90;99.90;;;;;;5071044;28;20370;-53
2023/03/04 05:25:49;;;;;;;15.10;2.67;;;4.90;99.90;;;;;;5071072;28;20020;-52
2023/03/04 05:28:15;;;;;;;12.20;2.03;;;4.90;99.90;;;;;;5070774;28;20033;-52
2023/03/04 05:30:42;;;;;;;15.07;2.77;;;4.90;99.90;;;;;;5070800;28;20025;-53
2023/03/04 05:33:09;;;;;;;15.80;2.87;;;4.90;99.90;;;;;;5070918;28;20107;-53
2023/03/04 05:35:35;;;;;;;11.50;3.27;;;4.90;99.90;;;;;;5070635;28;20038;-52
2023/03/04 05:38:03;;;;;;;12.80;2.53;;;4.80;99.90;;;;;;5070554;28;20098;-54
2023/03/04 05:40:29;;;;;;;9.67;2.10;;;4.90;99.90;;;;;;5070547;28;20127;-49
2023/03/04 05:42:55;;;;;;;12.20;2.13;;;4.90;99.90;;;;;;5070559;28;20111;-52
2023/03/04 05:45:21;;;;;;;10.83;2.30;;;4.90;99.90;;;;;;5070486;28;20104;-52
2023/03/04 05:47:48;;;;;;;13.17;2.27;;;4.90;99.90;;;;;;5070445;28;20025;-52
2023/03/04 05:50:13;;;;;;;14.23;2.40;;;4.90;99.90;;;;;;5052601;28;20033;-52
2023/03/04 05:52:39;;;;;;;15.30;2.93;;;5.00;99.90;;;;;;5070450;28;20397;-50
2023/03/04 05:55:05;;;;;;;20.43;3.27;;;4.90;99.90;;;;;;5070305;28;20063;-49
2023/03/04 05:57:31;;;;;;;16.17;3.50;;;5.00;99.90;;;;;;5070256;28;20040;-52
2023/03/04 05:59:57;;;;;;;13.53;2.87;;;5.00;99.90;;;;;;5070197;28;20036;-52
2023/03/04 06:02:22;;;;;;;14.33;2.83;;;5.00;99.90;;;;;;5070428;28;20074;-54
2023/03/04 06:04:48;;;;;;;11.27;2.53;;;5.00;99.90;;;;;;5070411;28;20048;-51
2023/03/04 06:07:14;;;;;;;11.10;2.43;;;5.00;99.90;;;;;;5070463;28;20504;-54
2023/03/04 06:09:40;;;;;;;12.93;2.80;;;5.10;99.90;;;;;;5070256;28;20074;-51
2023/03/04 06:12:06;;;;;;;14.50;2.97;;;5.10;99.90;;;;;;5070375;28;20496;-51
2023/03/04 06:14:31;;;;;;;19.30;3.33;;;5.10;99.90;;;;;;5069964;28;20079;-49
2023/03/04 06:16:57;;;;;;;14.77;3.03;;;5.00;99.90;;;;;;5070289;28;20085;-53
2023/03/04 06:19:23;;;;;;;17.07;2.40;;;5.00;99.90;;;;;;5070165;28;20324;-52
2023/03/04 06:21:48;;;;;;;12.10;2.97;;;5.00;99.90;;;;;;5070329;28;20119;-52
2023/03/04 06:24:14;;;;;;;25.90;5.27;;;5.00;99.90;;;;;;5070107;28;20230;-53
2023/03/04 06:26:40;;;;;;;19.57;5.23;;;5.00;99.90;;;;;;5069915;28;20111;-51
2023/03/04 06:29:06;;;;;;;23.57;5.03;;;4.90;99.90;;;;;;5070751;28;20043;-52
2023/03/04 06:31:32;;;;;;;21.90;4.83;;;5.00;99.90;;;;;;5073713;28;20075;-54
2023/03/04 06:33:57;;;;;;;23.30;5.47;;;5.00;99.90;;;;;;5073238;28;20044;-52
2023/03/04 06:36:23;;;;;;;19.17;4.60;;;5.00;99.90;;;;;;5073861;28;20031;-52
2023/03/04 06:38:49;;;;;;;15.17;3.83;;;4.90;99.90;;;;;;5073690;28;20508;-50
2023/03/04 06:41:16;;;;;;;15.30;3.40;;;5.00;99.90;;;;;;5073662;28;20035;-53
2023/03/04 06:43:41;;;;;;;13.83;3.00;;;4.90;99.90;;;;;;5055351;28;20033;-53
2023/03/04 06:46:07;;;;;;;9.50;2.23;;;4.90;99.90;;;;;;5073643;28;20488;-55
2023/03/04 06:48:33;;;;;;;10.13;2.30;;;4.90;99.90;;;;;;5073333;28;20020;-54
2023/03/04 06:51:05;;;;;;;10.67;2.30;;;4.90;99.90;;;;;;5073638;28;20370;-53
2023/03/04 06:53:31;;;;;;;7.47;2.20;;;5.00;99.90;;;;;;5073212;28;20503;-54
2023/03/04 06:55:56;;;;;;;13.50;2.40;;;5.00;99.90;;;;;;5073552;28;20107;-54
2023/03/04 06:58:22;;;;;;;7.93;2.20;;;5.00;99.90;;;;;;5073216;28;20056;-53
2023/03/04 07:00:48;;;;;;;14.13;2.93;;;5.00;99.90;;;;;;5073182;28;20033;-54
2023/03/04 07:03:14;;;;;;;13.47;2.20;;;5.00;99.90;;;;;;5073347;28;20024;-52
2023/03/04 07:05:39;;;;;;;13.30;2.67;;;4.90;99.90;;;;;;5073118;28;20116;-51
2023/03/04 07:08:06;;;;;;;18.73;2.73;;;5.00;99.90;;;;;;5073127;28;20082;-51
2023/03/04 07:10:32;;;;;;;10.67;2.13;;;4.90;99.90;;;;;;5073125;28;20028;-54
2023/03/04 07:12:58;;;;;;;8.63;2.20;;;4.90;99.90;;;;;;5072929;28;20568;-56
2023/03/04 07:15:23;;;;;;;14.40;2.87;;;4.90;99.90;;;;;;5072972;28;20409;-54
2023/03/04 07:17:49;;;;;;;23.33;3.30;;;4.90;99.90;;;;;;5073027;28;20042;-55
2023/03/04 07:20:15;;;;;;;12.37;3.10;;;4.80;99.90;;;;;;5073314;28;20028;-54
2023/03/04 07:22:40;;;;;;;11.90;3.37;;;4.80;99.90;;;;;;5072841;28;20021;-53
2023/03/04 07:25:06;;;;;;;16.97;3.27;;;4.90;99.90;;;;;;5072741;28;20028;-52
2023/03/04 07:27:32;;;;;;;10.87;2.07;;;4.90;99.90;;;;;;5072631;28;20389;-53
2023/03/04 07:29:58;;;;;;;16.00;2.80;;;4.90;99.90;;;;;;5072842;28;20029;-53
2023/03/04 07:32:24;;;;;;;15.93;2.83;;;4.90;99.90;;;;;;5072832;28;20255;-53
2023/03/04 07:34:50;;;;;;;13.90;3.17;;;5.00;99.90;;;;;;5072517;28;20035;-51
2023/03/04 07:37:16;;;;;;;10.17;2.57;;;5.00;99.90;;;;;;5072503;28;20120;-54
2023/03/04 07:39:41;;;;;;;11.30;2.93;;;4.90;99.90;;;;;;5072602;28;20116;-53
2023/03/04 07:42:07;;;;;;;13.10;2.37;;;5.00;99.90;;;;;;5071428;28;20396;-50
2023/03/04 07:44:38;;;;;;;13.00;2.70;;;5.00;99.90;;;;;;5054389;28;20029;-54
2023/03/04 07:47:04;;;;;;;11.70;2.23;;;5.00;99.90;;;;;;5072615;28;20089;-54
2023/03/04 07:49:29;;;;;;;10.93;2.17;;;5.00;99.90;;;;;;5072459;28;20051;-51
2023/03/04 07:51:55;;;;;;;12.03;2.30;;;5.00;99.90;;;;;;5072440;28;20511;-53
2023/03/04 07:54:21;;;;;;;10.83;2.07;;;5.00;99.90;;;;;;5072099;28;20110;-55
2023/03/04 07:56:46;;;;;;;11.33;2.60;;;5.10;99.90;;;;;;5072593;28;20040;-55
2023/03/04 07:59:12;;;;;;;12.00;2.70;;;5.20;99.90;;;;;;5072415;28;20040;-56
2023/03/04 08:01:38;;;;;;;10.67;2.10;;;5.40;99.90;;;;;;5072492;28;20103;-52
2023/03/04 08:04:05;;;;;;;12.83;2.10;;;5.50;99.90;;;;;;5071886;28;20492;-50
2023/03/04 08:06:32;;;;;;;12.87;2.20;;;5.60;99.90;;;;;;5071933;28;20025;-55
2023/03/04 08:09:01;;;;;;;10.97;2.00;;;5.50;99.90;;;;;;5072062;28;20556;-53
2023/03/04 08:11:28;;;;;;;10.43;2.28;;;5.60;99.90;;;;;;5072020;28;20082;-53
2023/03/04 08:13:54;;;;;;;8.27;1.93;;;5.60;99.90;;;;;;5072031;28;20444;-52
2023/03/04 08:16:21;;;;;;;14.63;2.77;;;5.60;99.90;;;;;;5071867;28;20029;-53
2023/03/04 08:18:50;;;;;;;9.90;2.87;;;5.60;99.90;;;;;;5071844;28;20070;-52
2023/03/04 08:21:18;;;;;;;18.92;2.80;;;5.60;99.90;;;;;;5071833;28;20036;-52
2023/03/04 08:23:44;;;;;;;16.67;3.40;;;5.70;99.90;;;;;;5071463;28;20059;-52
2023/03/04 08:26:19;;;;;;;14.70;4.20;;;5.80;99.90;;;;;;5071697;28;20169;-52
2023/03/04 08:28:45;;;;;;;10.17;3.40;;;6.00;99.90;;;;;;5071609;28;20043;-52
2023/03/04 08:31:12;;;;;;;11.87;3.10;;;6.00;99.90;;;;;;5071604;28;20036;-53
2023/03/04 08:33:38;;;;;;;15.20;2.70;;;6.00;99.90;;;;;;5071256;28;20024;-52
2023/03/04 08:36:05;;;;;;;12.60;2.27;;;6.00;99.90;;;;;;5071382;28;20041;-51
2023/03/04 08:38:33;;;;;;;13.07;2.53;;;5.90;99.90;;;;;;5071332;28;20028;-53
2023/03/04 08:40:59;;;;;;;11.47;2.80;;;5.80;99.90;;;;;;5071395;28;20546;-54
2023/03/04 08:43:25;;;;;;;15.73;2.17;;;5.70;99.90;;;;;;5070973;28;20067;-53
2023/03/04 08:45:52;;;;;;;10.50;1.63;;;5.60;99.90;;;;;;5071382;28;20532;-53
2023/03/04 08:48:18;;;;;;;11.77;2.20;;;5.60;99.90;;;;;;5071503;28;20094;-53
2023/03/04 08:50:45;;;;;;;11.83;2.60;;;5.50;99.90;;;;;;5071031;28;20037;-51
2023/03/04 08:53:12;;;;;;;10.80;2.53;;;5.30;99.90;;;;;;5070773;28;20021;-53
2023/03/04 08:55:38;;;;;;;7.50;2.37;;;5.20;99.90;;;;;;5070986;28;20035;-52
2023/03/04 08:58:05;;;;;;;13.33;2.63;;;5.20;99.90;;;;;;5070920;28;20110;-53
2023/03/04 09:00:31;;;;;;;11.70;2.70;;;5.10;99.90;;;;;;5071068;28;20054;-52
2023/03/04 09:02:57;;;;;;;11.07;1.90;;;5.20;99.90;;;;;;5070872;28;20028;-55
2023/03/04 09:05:22;;;;;;;15.70;3.17;;;5.20;99.90;;;;;;5070728;28;20024;-53
2023/03/04 09:07:48;;;;;;;12.53;2.17;;;5.20;99.90;;;;;;5070758;28;20082;-53
2023/03/04 09:10:14;;;;;;;7.87;2.20;;;5.40;99.90;;;;;;5071030;28;20060;-52
2023/03/04 09:12:40;;;;;;;10.97;2.97;;;5.50;99.90;;;;;;5070730;28;20484;-54
2023/03/04 09:15:06;;;;;;;12.73;2.40;;;5.60;99.90;;;;;;5070726;28;20090;-53
2023/03/04 09:17:32;;;;;;;8.03;2.30;;;5.60;99.90;;;;;;5070658;28;20070;-54
2023/03/04 09:19:58;;;;;;;11.10;1.90;;;5.80;99.90;;;;;;5070488;28;20029;-52
2023/03/04 09:22:23;;;;;;;13.83;2.50;;;5.90;99.90;;;;;;5070841;28;20681;-52
2023/03/04 09:24:49;;;;;;;10.00;1.90;;;5.80;99.90;;;;;;5070467;28;20032;-54
2023/03/04 09:27:15;;;;;;;8.47;2.10;;;5.90;99.90;;;;;;5070530;28;20491;-52
2023/03/04 09:29:42;;;;;;;10.17;1.93;;;6.00;99.90;;;;;;5070598;28;20032;-52
2023/03/04 09:32:07;;;;;;;14.93;2.20;;;6.00;99.90;;;;;;5070648;28;20032;-53
2023/03/04 09:34:33;;;;;;;8.87;1.93;;;6.10;99.90;;;;;;5070183;28;20043;-55
2023/03/04 09:36:59;;;;;;;8.47;2.43;;;6.30;99.90;;;;;;5070358;28;20089;-53
2023/03/04 09:39:25;;;;;;;8.47;2.50;;;6.40;99.90;;;;;;5070516;28;20103;-51
2023/03/04 09:41:56;;;;;;;12.40;2.70;;;6.40;99.90;;;;;;5070610;28;20028;-53
2023/03/04 09:44:36;;;;;;;12.57;2.83;;;6.40;99.90;;;;;;5070091;28;20040;-52
2023/03/04 09:47:16;;;;;;;8.73;2.10;;;6.50;99.90;;;;;;5069850;28;20356;-48
2023/03/04 09:49:48;;;;;;;7.23;1.83;;;6.40;99.90;;;;;;5070315;28;20103;-53
2023/03/04 09:52:20;;;;;;;10.47;2.13;;;6.50;99.90;;;;;;5070432;28;20035;-50
2023/03/04 09:55:15;;;;;;;10.30;2.20;;;6.50;99.90;;;;;;5070151;28;20032;-51
2023/03/04 09:57:56;;;;;;;16.23;6.33;;;6.40;99.90;;;;;;5070216;28;20087;-54
2023/03/04 10:00:25;;;;;;;9.43;1.80;;;6.40;99.90;;;;;;5070350;28;20024;-52
2023/03/04 10:03:02;;;;;;;6.75;1.90;;;6.50;99.90;;;;;;5070284;28;20033;-51
2023/03/04 10:05:31;;;;;;;8.83;2.37;;;6.50;99.90;;;;;;5073948;28;20059;-54
2023/03/04 10:08:14;;;;;;;9.60;2.38;;;6.40;99.90;;;;;;5074208;28;20029;-54
2023/03/04 10:10:42;;;;;;;7.33;2.60;;;6.40;99.90;;;;;;5056408;28;20039;-52
2023/03/04 10:13:15;;;;;;;9.77;2.60;;;6.50;99.90;;;;;;5056282;28;20036;-54
2023/03/04 10:15:45;;;;;;;7.20;2.00;;;6.60;99.90;;;;;;5074054;28;20032;-53
2023/03/04 10:18:22;;;;;;;7.77;2.03;;;6.60;99.90;;;;;;5073953;28;20036;-52
2023/03/04 10:20:54;;;;;;;8.60;2.10;;;6.60;99.90;;;;;;5074033;28;20481;-53
2023/03/04 10:23:28;;;;;;;6.70;1.90;;;6.70;99.90;;;;;;5074093;28;20071;-53
2023/03/04 10:25:55;;;;;;;5.43;1.77;;;6.70;99.90;;;;;;5073960;28;20119;-55
2023/03/04 10:28:25;;;;;;;9.90;1.80;;;6.80;99.90;;;;;;5073770;28;20028;-54
2023/03/04 10:31:09;;;;;;;4.50;1.50;;;6.70;99.90;;;;;;5073784;28;20536;-53
2023/03/04 10:33:37;;;;;;;7.37;1.43;;;6.70;99.90;;;;;;5073748;28;20123;-54
2023/03/04 10:36:04;;;;;;;7.13;1.47;;;6.80;99.90;;;;;;5074067;28;20056;-52
2023/03/04 10:38:39;;;;;;;7.60;1.53;;;6.70;99.90;;;;;;5073699;28;20113;-50
2023/03/04 10:41:16;;;;;;;6.77;1.77;;;6.70;99.90;;;;;;5073726;28;20115;-51
2023/03/04 10:43:45;;;;;;;8.33;1.70;;;6.70;99.90;;;;;;5085605;22;20067;-51
2023/03/04 10:46:11;;;;;;;;;;;6.90;99.90;;;;;;5074124;28;20024;-49
2023/03/04 10:48:41;;;;;;;8.77;1.73;;;7.10;99.90;;;;;;5073392;28;19912;-50
2023/03/04 10:51:22;;;;;;;10.73;2.75;;;7.40;99.90;;;;;;5073507;28;20048;-48
2023/03/04 10:53:54;;;;;;;9.27;1.47;;;7.60;99.90;;;;;;5073134;28;20481;-47
2023/03/04 10:56:44;;;;;;;8.70;1.90;;;7.50;99.90;;;;;;5073312;28;20050;-46
2023/03/04 10:59:29;;;;;;;;;;;7.30;99.90;;;;;;5074037;28;20037;-49
2023/03/04 11:01:55;;;;;;;6.10;1.70;;;7.00;99.90;;;;;;5073450;28;19948;-47
2023/03/04 11:04:25;;;;;;;6.13;1.70;;;6.90;99.90;;;;;;5072939;28;20512;-52
2023/03/04 11:06:52;;;;;;;5.17;1.87;;;6.80;99.90;;;;;;5073020;28;20116;-52
2023/03/04 11:09:27;;;;;;;8.13;1.50;;;6.80;99.90;;;;;;5073306;28;20052;-47
2023/03/04 11:11:57;;;;;;;3.43;1.40;;;6.90;99.90;;;;;;5073188;28;20513;-51
2023/03/04 11:14:35;;;;;;;5.07;1.63;;;7.10;99.90;;;;;;5072955;28;20046;-50
2023/03/04 11:17:15;;;;;;;5.40;1.80;;;7.30;99.90;;;;;;5072897;28;20447;-50
2023/03/04 11:19:43;;;;;;;5.17;1.40;;;7.40;99.90;;;;;;5073040;28;20063;-52
2023/03/04 11:22:14;;;;;;;5.30;1.67;;;7.60;99.90;;;;;;5073171;28;20056;-49
2023/03/04 11:24:42;;;;;;;3.67;1.07;;;7.70;99.90;;;;;;5072720;28;20115;-47
2023/03/04 11:27:25;;;;;;;5.43;1.43;;;7.70;99.90;;;;;;5072737;28;20021;-47
2023/03/04 11:29:56;;;;;;;6.73;1.40;;;7.60;99.90;;;;;;5072962;28;20449;-49
2023/03/04 11:32:33;;;;;;;4.80;1.57;;;7.50;99.90;;;;;;5072899;28;20069;-51
2023/03/04 11:35:23;;;;;;;6.60;1.60;;;7.70;99.90;;;;;;5072536;28;20128;-51
2023/03/04 11:38:09;;;;;;;4.73;1.60;;;7.80;99.90;;;;;;5072532;28;20162;-51
2023/03/04 11:40:58;;;;;;;7.27;1.47;;;7.60;99.90;;;;;;5072554;28;20032;-47
2023/03/04 11:43:29;;;;;;;5.50;1.53;;;7.50;99.90;;;;;;5061115;28;20043;-49
2023/03/04 11:46:13;;;;;;;4.77;1.60;;;7.40;99.90;;;;;;5072586;28;20118;-49
2023/03/04 11:49:35;;;;;;;4.60;1.40;;;7.40;99.90;;;;;;5072690;28;20035;-50
2023/03/04 11:52:34;;;;;;;5.20;1.60;;;7.40;99.90;;;;;;5010275;28;20030;-49
2023/03/04 11:55:22;;;;;;;;;;;7.40;99.90;;;;;;5010545;28;20170;-50
2023/03/04 11:57:57;;;;;;;6.27;1.90;;;7.40;99.90;;;;;;5070564;28;19915;-49
2023/03/04 12:00:41;;;;;;;6.27;1.67;;;7.30;99.90;;;;;;5072084;28;20032;-49
2023/03/04 12:03:34;;;;;;;6.57;1.67;;;7.30;99.90;;;;;;5072241;28;20056;-51
2023/03/04 12:06:24;;;;;;;5.17;1.30;;;7.30;99.90;;;;;;5072210;28;20123;-46
2023/03/04 12:09:23;;;;;;;4.37;1.37;;;7.30;99.90;;;;;;5072050;28;20756;-48
2023/03/04 12:11:54;;;;;;;3.63;1.30;;;7.20;99.90;;;;;;5063564;28;20510;-46
2023/03/04 12:14:45;;;;;;;3.80;1.40;;;7.40;99.90;;;;;;5071740;28;20104;-46
2023/03/04 12:17:24;;;;;;;3.47;1.23;;;7.50;99.90;;;;;;5071649;28;20033;-45
2023/03/04 12:20:27;;;;;;;3.90;1.33;;;7.70;99.90;;;;;;5071754;28;20052;-48
2023/03/04 12:23:25;;;;;;;5.17;1.80;;;7.80;99.90;;;;;;5016799;28;20153;-50
2023/03/04 12:26:27;;;;;;;8.83;2.00;;;7.80;99.90;;;;;;5072016;28;20172;-50
2023/03/04 12:29:15;;;;;;;3.57;1.67;;;7.90;99.90;;;;;;5063174;28;20087;-48
2023/03/04 12:32:00;;;;;;;5.80;2.03;;;7.70;99.90;;;;;;5071483;28;20389;-51
2023/03/04 12:34:45;;;;;;;6.13;2.10;;;7.70;99.90;;;;;;5071297;28;20024;-51
2023/03/04 12:37:24;;;;;;;4.40;1.60;;;7.60;99.90;;;;;;5071407;28;20086;-51
2023/03/04 12:40:17;;;;;;;4.32;1.63;;;7.60;99.90;;;;;;5071247;28;20123;-53
2023/03/04 12:43:02;;;;;;;6.37;1.63;;;7.50;99.90;;;;;;5060549;28;20121;-47
2023/03/04 12:45:53;;;;;;;3.77;1.77;;;7.40;99.90;;;;;;5071184;28;20025;-50
2023/03/04 12:48:24;;;;;;;5.47;1.93;;;7.20;99.90;;;;;;5071158;28;20388;-48
2023/03/04 12:51:13;;;;;;;5.93;1.70;;;7.10;99.90;;;;;;5071211;28;20378;-47
2023/03/04 12:54:09;;;;;;;3.25;1.75;;;7.00;99.90;;;;;;5070947;28;20052;-48
2023/03/04 12:56:47;;;;;;;4.93;1.80;;;7.00;99.90;;;;;;5070841;28;20382;-48
2023/03/04 12:59:19;;;;;;;6.33;2.00;;;7.00;99.90;;;;;;5071190;28;20040;-45
2023/03/04 13:01:49;;;;;;;7.00;1.93;;;7.00;99.90;;;;;;5071048;28;20029;-49
2023/03/04 13:04:36;;;;;;;6.50;2.37;;;6.80;99.90;;;;;;5070825;28;20631;-50